sensor_id;sensor_type;location;lat;lon;timestamp;P1;durP1;ratioP1;P2;durP2;ratioP2
14698;SDS011;7439;50.804;4.602;2022-11-15T00:00:19;67.80;;;62.63;;
14698;SDS011;7439;50.804;4.602;2022-11-15T00:02:47;66.37;;;61.53;;
14698;SDS011;7439;50.804;4.602;2022-11-15T00:05:16;69.23;;;63.87;;
14698;SDS011;7439;50.804;4.602;2022-11-15T00:07:43;68.53;;;63.13;;
14698;SDS011;7439;50.804;4.602;2022-11-15T00:10:11;75.40;;;70.03;;
14698;SDS011;7439;50.804;4.602;2022-11-15T00:12:38;84.20;;;78.60;;
14698;SDS011;7439;50.804;4.602;2022-11-15T00:15:06;88.27;;;82.23;;
14698;SDS011;7439;50.804;4.602;2022-11-15T00:17:34;90.27;;;84.23;;
14698;SDS011;7439;50.804;4.602;2022-11-15T00:20:01;95.00;;;88.97;;
14698;SDS011;7439;50.804;4.602;2022-11-15T00:22:32;97.83;;;91.60;;
14698;SDS011;7439;50.804;4.602;2022-11-15T00:25:02;97.13;;;90.93;;
14698;SDS011;7439;50.804;4.602;2022-11-15T00:27:29;91.63;;;85.50;;
14698;SDS011;7439;50.804;4.602;2022-11-15T00:29:57;99.27;;;92.30;;
14698;SDS011;7439;50.804;4.602;2022-11-15T00:32:24;99.43;;;92.90;;
14698;SDS011;7439;50.804;4.602;2022-11-15T00:34:51;96.17;;;89.37;;
14698;SDS011;7439;50.804;4.602;2022-11-15T00:37:19;90.50;;;84.53;;
14698;SDS011;7439;50.804;4.602;2022-11-15T00:39:48;94.13;;;88.20;;
14698;SDS011;7439;50.804;4.602;2022-11-15T00:42:15;93.13;;;87.23;;
14698;SDS011;7439;50.804;4.602;2022-11-15T00:44:42;93.63;;;87.63;;
14698;SDS011;7439;50.804;4.602;2022-11-15T00:47:10;96.87;;;90.60;;
14698;SDS011;7439;50.804;4.602;2022-11-15T00:49:37;86.97;;;81.37;;
14698;SDS011;7439;50.804;4.602;2022-11-15T00:52:06;92.80;;;87.07;;
14698;SDS011;7439;50.804;4.602;2022-11-15T00:54:33;96.60;;;90.53;;
14698;SDS011;7439;50.804;4.602;2022-11-15T00:57:02;102.53;;;95.77;;
14698;SDS011;7439;50.804;4.602;2022-11-15T00:59:29;103.70;;;97.20;;
14698;SDS011;7439;50.804;4.602;2022-11-15T01:01:57;102.07;;;95.70;;
14698;SDS011;7439;50.804;4.602;2022-11-15T01:04:24;100.73;;;94.43;;
14698;SDS011;7439;50.804;4.602;2022-11-15T01:06:51;106.30;;;99.73;;
14698;SDS011;7439;50.804;4.602;2022-11-15T01:09:19;106.87;;;100.47;;
14698;SDS011;7439;50.804;4.602;2022-11-15T01:11:46;107.70;;;100.80;;
14698;SDS011;7439;50.804;4.602;2022-11-15T01:14:15;111.77;;;105.17;;
14698;SDS011;7439;50.804;4.602;2022-11-15T01:16:42;106.23;;;100.10;;
14698;SDS011;7439;50.804;4.602;2022-11-15T01:19:10;107.77;;;101.10;;
14698;SDS011;7439;50.804;4.602;2022-11-15T01:21:37;108.47;;;101.70;;
14698;SDS011;7439;50.804;4.602;2022-11-15T01:24:08;101.00;;;94.93;;
14698;SDS011;7439;50.804;4.602;2022-11-15T01:26:38;100.90;;;94.63;;
14698;SDS011;7439;50.804;4.602;2022-11-15T01:29:06;98.80;;;92.63;;
14698;SDS011;7439;50.804;4.602;2022-11-15T01:31:35;98.13;;;91.80;;
14698;SDS011;7439;50.804;4.602;2022-11-15T01:34:05;96.57;;;90.60;;
14698;SDS011;7439;50.804;4.602;2022-11-15T01:36:32;92.87;;;86.70;;
14698;SDS011;7439;50.804;4.602;2022-11-15T01:38:59;91.87;;;86.23;;
14698;SDS011;7439;50.804;4.602;2022-11-15T01:41:27;101.03;;;94.33;;
14698;SDS011;7439;50.804;4.602;2022-11-15T01:43:56;99.70;;;93.00;;
14698;SDS011;7439;50.804;4.602;2022-11-15T01:46:25;99.57;;;93.27;;
14698;SDS011;7439;50.804;4.602;2022-11-15T01:48:55;107.03;;;100.47;;
14698;SDS011;7439;50.804;4.602;2022-11-15T01:51:25;101.40;;;95.20;;
14698;SDS011;7439;50.804;4.602;2022-11-15T01:53:54;106.77;;;99.77;;
14698;SDS011;7439;50.804;4.602;2022-11-15T01:56:22;102.23;;;95.97;;
14698;SDS011;7439;50.804;4.602;2022-11-15T01:58:50;105.70;;;99.53;;
14698;SDS011;7439;50.804;4.602;2022-11-15T02:01:18;112.63;;;106.13;;
14698;SDS011;7439;50.804;4.602;2022-11-15T02:03:48;111.53;;;104.87;;
14698;SDS011;7439;50.804;4.602;2022-11-15T02:06:18;114.50;;;107.50;;
14698;SDS011;7439;50.804;4.602;2022-11-15T02:08:45;117.87;;;110.73;;
14698;SDS011;7439;50.804;4.602;2022-11-15T02:11:13;114.33;;;107.67;;
14698;SDS011;7439;50.804;4.602;2022-11-15T02:13:40;117.57;;;110.67;;
14698;SDS011;7439;50.804;4.602;2022-11-15T02:16:09;120.23;;;113.00;;
14698;SDS011;7439;50.804;4.602;2022-11-15T02:18:41;121.63;;;114.73;;
14698;SDS011;7439;50.804;4.602;2022-11-15T02:21:12;121.83;;;114.53;;
14698;SDS011;7439;50.804;4.602;2022-11-15T02:23:52;123.60;;;116.53;;
14698;SDS011;7439;50.804;4.602;2022-11-15T02:26:36;126.13;;;118.83;;
14698;SDS011;7439;50.804;4.602;2022-11-15T02:29:07;125.53;;;118.73;;
14698;SDS011;7439;50.804;4.602;2022-11-15T02:31:40;128.37;;;121.07;;
14698;SDS011;7439;50.804;4.602;2022-11-15T02:34:14;127.00;;;119.73;;
14698;SDS011;7439;50.804;4.602;2022-11-15T02:36:47;127.97;;;120.83;;
14698;SDS011;7439;50.804;4.602;2022-11-15T02:39:19;127.03;;;119.77;;
14698;SDS011;7439;50.804;4.602;2022-11-15T02:41:51;121.17;;;114.27;;
14698;SDS011;7439;50.804;4.602;2022-11-15T02:44:21;123.27;;;116.07;;
14698;SDS011;7439;50.804;4.602;2022-11-15T02:46:51;127.17;;;119.83;;
14698;SDS011;7439;50.804;4.602;2022-11-15T02:49:38;125.33;;;118.13;;
14698;SDS011;7439;50.804;4.602;2022-11-15T02:52:06;125.37;;;117.57;;
14698;SDS011;7439;50.804;4.602;2022-11-15T02:54:34;126.03;;;118.33;;
14698;SDS011;7439;50.804;4.602;2022-11-15T02:57:03;122.47;;;115.10;;
14698;SDS011;7439;50.804;4.602;2022-11-15T02:59:44;125.33;;;117.90;;
14698;SDS011;7439;50.804;4.602;2022-11-15T03:02:20;123.90;;;116.07;;
14698;SDS011;7439;50.804;4.602;2022-11-15T03:04:52;129.50;;;120.63;;
14698;SDS011;7439;50.804;4.602;2022-11-15T03:07:22;129.43;;;121.37;;
14698;SDS011;7439;50.804;4.602;2022-11-15T03:09:52;125.00;;;117.53;;
14698;SDS011;7439;50.804;4.602;2022-11-15T03:12:23;130.03;;;122.27;;
14698;SDS011;7439;50.804;4.602;2022-11-15T03:14:53;132.17;;;123.83;;
14698;SDS011;7439;50.804;4.602;2022-11-15T03:17:25;126.97;;;119.23;;
14698;SDS011;7439;50.804;4.602;2022-11-15T03:19:54;133.93;;;126.20;;
14698;SDS011;7439;50.804;4.602;2022-11-15T03:22:23;135.97;;;127.57;;
14698;SDS011;7439;50.804;4.602;2022-11-15T03:24:52;129.27;;;121.47;;
14698;SDS011;7439;50.804;4.602;2022-11-15T03:27:20;135.10;;;126.67;;
14698;SDS011;7439;50.804;4.602;2022-11-15T03:29:49;130.57;;;122.83;;
14698;SDS011;7439;50.804;4.602;2022-11-15T03:32:19;128.07;;;120.67;;
14698;SDS011;7439;50.804;4.602;2022-11-15T03:34:49;117.43;;;109.30;;
14698;SDS011;7439;50.804;4.602;2022-11-15T03:37:17;123.53;;;116.23;;
14698;SDS011;7439;50.804;4.602;2022-11-15T03:39:47;117.33;;;110.20;;
14698;SDS011;7439;50.804;4.602;2022-11-15T03:42:17;122.70;;;115.20;;
14698;SDS011;7439;50.804;4.602;2022-11-15T03:44:49;116.77;;;109.83;;
14698;SDS011;7439;50.804;4.602;2022-11-15T03:47:18;119.43;;;112.33;;
14698;SDS011;7439;50.804;4.602;2022-11-15T03:49:50;115.97;;;108.90;;
14698;SDS011;7439;50.804;4.602;2022-11-15T03:52:19;119.53;;;112.33;;
14698;SDS011;7439;50.804;4.602;2022-11-15T03:54:49;115.03;;;108.07;;
14698;SDS011;7439;50.804;4.602;2022-11-15T03:57:16;113.20;;;106.40;;
14698;SDS011;7439;50.804;4.602;2022-11-15T03:59:47;110.40;;;104.00;;
14698;SDS011;7439;50.804;4.602;2022-11-15T04:02:15;117.40;;;110.93;;
14698;SDS011;7439;50.804;4.602;2022-11-15T04:04:42;114.90;;;108.10;;
14698;SDS011;7439;50.804;4.602;2022-11-15T04:07:11;112.80;;;106.23;;
14698;SDS011;7439;50.804;4.602;2022-11-15T04:09:38;110.40;;;104.23;;
14698;SDS011;7439;50.804;4.602;2022-11-15T04:12:20;108.07;;;101.57;;
14698;SDS011;7439;50.804;4.602;2022-11-15T04:14:56;109.97;;;104.10;;
14698;SDS011;7439;50.804;4.602;2022-11-15T04:17:33;112.90;;;106.77;;
14698;SDS011;7439;50.804;4.602;2022-11-15T04:20:00;116.20;;;109.73;;
14698;SDS011;7439;50.804;4.602;2022-11-15T04:22:47;122.20;;;115.87;;
14698;SDS011;7439;50.804;4.602;2022-11-15T04:25:32;115.97;;;109.83;;
14698;SDS011;7439;50.804;4.602;2022-11-15T04:27:59;107.43;;;101.83;;
14698;SDS011;7439;50.804;4.602;2022-11-15T04:30:26;114.10;;;107.97;;
14698;SDS011;7439;50.804;4.602;2022-11-15T04:32:54;115.70;;;109.50;;
14698;SDS011;7439;50.804;4.602;2022-11-15T04:35:21;116.10;;;110.20;;
14698;SDS011;7439;50.804;4.602;2022-11-15T04:37:50;118.13;;;111.13;;
14698;SDS011;7439;50.804;4.602;2022-11-15T04:40:19;119.17;;;113.40;;
14698;SDS011;7439;50.804;4.602;2022-11-15T04:42:47;118.90;;;113.10;;
14698;SDS011;7439;50.804;4.602;2022-11-15T04:45:14;114.13;;;108.87;;
14698;SDS011;7439;50.804;4.602;2022-11-15T04:47:42;109.90;;;104.40;;
14698;SDS011;7439;50.804;4.602;2022-11-15T04:50:11;118.40;;;112.50;;
14698;SDS011;7439;50.804;4.602;2022-11-15T04:52:39;113.50;;;108.30;;
14698;SDS011;7439;50.804;4.602;2022-11-15T04:55:08;119.80;;;114.03;;
14698;SDS011;7439;50.804;4.602;2022-11-15T04:57:36;117.17;;;111.67;;
14698;SDS011;7439;50.804;4.602;2022-11-15T05:00:04;116.23;;;110.70;;
14698;SDS011;7439;50.804;4.602;2022-11-15T05:02:32;114.67;;;108.83;;
14698;SDS011;7439;50.804;4.602;2022-11-15T05:05:13;116.47;;;110.57;;
14698;SDS011;7439;50.804;4.602;2022-11-15T05:07:41;127.37;;;121.10;;
14698;SDS011;7439;50.804;4.602;2022-11-15T05:10:10;127.70;;;121.20;;
14698;SDS011;7439;50.804;4.602;2022-11-15T05:12:37;118.53;;;112.53;;
14698;SDS011;7439;50.804;4.602;2022-11-15T05:15:05;115.90;;;109.67;;
14698;SDS011;7439;50.804;4.602;2022-11-15T05:17:33;109.53;;;104.03;;
14698;SDS011;7439;50.804;4.602;2022-11-15T05:20:00;117.97;;;112.10;;
14698;SDS011;7439;50.804;4.602;2022-11-15T05:22:27;116.87;;;110.90;;
14698;SDS011;7439;50.804;4.602;2022-11-15T05:24:55;113.53;;;108.03;;
14698;SDS011;7439;50.804;4.602;2022-11-15T05:27:27;113.97;;;108.47;;
14698;SDS011;7439;50.804;4.602;2022-11-15T05:29:54;114.87;;;109.20;;
14698;SDS011;7439;50.804;4.602;2022-11-15T05:32:22;113.97;;;108.27;;
14698;SDS011;7439;50.804;4.602;2022-11-15T05:34:49;121.43;;;115.43;;
14698;SDS011;7439;50.804;4.602;2022-11-15T05:37:16;120.80;;;114.73;;
14698;SDS011;7439;50.804;4.602;2022-11-15T05:39:44;122.60;;;116.77;;
14698;SDS011;7439;50.804;4.602;2022-11-15T05:42:12;119.97;;;114.30;;
14698;SDS011;7439;50.804;4.602;2022-11-15T05:44:43;121.00;;;115.40;;
14698;SDS011;7439;50.804;4.602;2022-11-15T05:47:16;124.60;;;118.70;;
14698;SDS011;7439;50.804;4.602;2022-11-15T05:49:44;115.20;;;109.40;;
14698;SDS011;7439;50.804;4.602;2022-11-15T05:52:12;114.47;;;108.73;;
14698;SDS011;7439;50.804;4.602;2022-11-15T05:54:41;107.90;;;102.50;;
14698;SDS011;7439;50.804;4.602;2022-11-15T05:57:09;110.17;;;104.93;;
14698;SDS011;7439;50.804;4.602;2022-11-15T05:59:36;107.40;;;102.13;;
14698;SDS011;7439;50.804;4.602;2022-11-15T06:02:07;107.60;;;101.57;;
14698;SDS011;7439;50.804;4.602;2022-11-15T06:04:34;92.67;;;88.23;;
14698;SDS011;7439;50.804;4.602;2022-11-15T06:07:04;89.23;;;85.30;;
14698;SDS011;7439;50.804;4.602;2022-11-15T06:09:32;96.47;;;92.20;;
14698;SDS011;7439;50.804;4.602;2022-11-15T06:11:59;89.00;;;84.57;;
14698;SDS011;7439;50.804;4.602;2022-11-15T06:14:26;93.93;;;88.90;;
14698;SDS011;7439;50.804;4.602;2022-11-15T06:16:57;96.07;;;91.70;;
14698;SDS011;7439;50.804;4.602;2022-11-15T06:19:29;94.97;;;90.90;;
14698;SDS011;7439;50.804;4.602;2022-11-15T06:21:58;98.90;;;94.53;;
14698;SDS011;7439;50.804;4.602;2022-11-15T06:24:26;96.50;;;91.27;;
14698;SDS011;7439;50.804;4.602;2022-11-15T06:26:53;94.17;;;89.97;;
14698;SDS011;7439;50.804;4.602;2022-11-15T06:29:22;98.80;;;94.17;;
14698;SDS011;7439;50.804;4.602;2022-11-15T06:31:50;97.73;;;93.43;;
14698;SDS011;7439;50.804;4.602;2022-11-15T06:34:18;93.60;;;89.40;;
14698;SDS011;7439;50.804;4.602;2022-11-15T06:36:47;93.03;;;88.60;;
14698;SDS011;7439;50.804;4.602;2022-11-15T06:39:14;92.43;;;88.07;;
14698;SDS011;7439;50.804;4.602;2022-11-15T06:41:42;93.70;;;88.73;;
14698;SDS011;7439;50.804;4.602;2022-11-15T06:44:09;94.93;;;90.47;;
14698;SDS011;7439;50.804;4.602;2022-11-15T06:46:37;97.40;;;92.93;;
14698;SDS011;7439;50.804;4.602;2022-11-15T06:49:04;92.60;;;87.57;;
14698;SDS011;7439;50.804;4.602;2022-11-15T06:51:31;97.40;;;93.00;;
14698;SDS011;7439;50.804;4.602;2022-11-15T06:54:00;104.20;;;99.10;;
14698;SDS011;7439;50.804;4.602;2022-11-15T06:56:28;100.40;;;94.33;;
14698;SDS011;7439;50.804;4.602;2022-11-15T06:58:55;95.63;;;91.10;;
14698;SDS011;7439;50.804;4.602;2022-11-15T07:01:25;99.40;;;94.90;;
14698;SDS011;7439;50.804;4.602;2022-11-15T07:03:56;83.27;;;79.33;;
14698;SDS011;7439;50.804;4.602;2022-11-15T07:06:23;82.87;;;78.80;;
14698;SDS011;7439;50.804;4.602;2022-11-15T07:08:51;79.13;;;75.30;;
14698;SDS011;7439;50.804;4.602;2022-11-15T07:11:20;81.97;;;78.23;;
14698;SDS011;7439;50.804;4.602;2022-11-15T07:13:47;77.60;;;74.20;;
14698;SDS011;7439;50.804;4.602;2022-11-15T07:16:14;82.43;;;78.47;;
14698;SDS011;7439;50.804;4.602;2022-11-15T07:18:41;87.90;;;84.07;;
14698;SDS011;7439;50.804;4.602;2022-11-15T07:21:09;85.77;;;82.03;;
14698;SDS011;7439;50.804;4.602;2022-11-15T07:23:38;83.00;;;79.20;;
14698;SDS011;7439;50.804;4.602;2022-11-15T07:26:06;85.63;;;81.63;;
14698;SDS011;7439;50.804;4.602;2022-11-15T07:28:35;88.37;;;84.27;;
14698;SDS011;7439;50.804;4.602;2022-11-15T07:31:02;89.70;;;85.13;;
14698;SDS011;7439;50.804;4.602;2022-11-15T07:33:30;85.90;;;82.20;;
14698;SDS011;7439;50.804;4.602;2022-11-15T07:36:00;84.83;;;79.67;;
14698;SDS011;7439;50.804;4.602;2022-11-15T07:38:31;75.27;;;71.83;;
14698;SDS011;7439;50.804;4.602;2022-11-15T07:40:59;79.93;;;76.37;;
14698;SDS011;7439;50.804;4.602;2022-11-15T07:43:27;81.80;;;77.70;;
14698;SDS011;7439;50.804;4.602;2022-11-15T07:45:57;82.83;;;79.33;;
14698;SDS011;7439;50.804;4.602;2022-11-15T07:48:24;82.50;;;78.33;;
14698;SDS011;7439;50.804;4.602;2022-11-15T07:50:51;81.67;;;78.10;;
14698;SDS011;7439;50.804;4.602;2022-11-15T07:53:19;83.63;;;79.53;;
14698;SDS011;7439;50.804;4.602;2022-11-15T07:55:46;73.20;;;69.90;;
14698;SDS011;7439;50.804;4.602;2022-11-15T07:58:14;79.57;;;75.70;;
14698;SDS011;7439;50.804;4.602;2022-11-15T08:00:41;82.17;;;78.67;;
14698;SDS011;7439;50.804;4.602;2022-11-15T08:03:10;76.23;;;73.03;;
14698;SDS011;7439;50.804;4.602;2022-11-15T08:05:38;536.77;;;141.40;;
14698;SDS011;7439;50.804;4.602;2022-11-15T08:08:06;169.87;;;162.63;;
14698;SDS011;7439;50.804;4.602;2022-11-15T08:10:34;204.40;;;196.57;;
14698;SDS011;7439;50.804;4.602;2022-11-15T08:13:02;192.03;;;184.37;;
14698;SDS011;7439;50.804;4.602;2022-11-15T08:15:31;172.00;;;165.17;;
14698;SDS011;7439;50.804;4.602;2022-11-15T08:17:59;158.40;;;151.70;;
14698;SDS011;7439;50.804;4.602;2022-11-15T08:20:31;274.07;;;262.50;;
14698;SDS011;7439;50.804;4.602;2022-11-15T08:23:00;303.70;;;291.50;;
14698;SDS011;7439;50.804;4.602;2022-11-15T08:25:31;200.20;;;192.10;;
14698;SDS011;7439;50.804;4.602;2022-11-15T08:27:59;181.10;;;173.77;;
14698;SDS011;7439;50.804;4.602;2022-11-15T08:30:29;180.73;;;173.50;;
14698;SDS011;7439;50.804;4.602;2022-11-15T08:32:58;79.40;;;76.07;;
14698;SDS011;7439;50.804;4.602;2022-11-15T08:35:25;95.13;;;91.37;;
14698;SDS011;7439;50.804;4.602;2022-11-15T08:37:54;65.83;;;63.20;;
14698;SDS011;7439;50.804;4.602;2022-11-15T08:40:21;107.83;;;103.43;;
14698;SDS011;7439;50.804;4.602;2022-11-15T08:42:49;63.40;;;60.53;;
14698;SDS011;7439;50.804;4.602;2022-11-15T08:45:16;57.60;;;55.10;;
14698;SDS011;7439;50.804;4.602;2022-11-15T08:47:43;44.97;;;42.87;;
14698;SDS011;7439;50.804;4.602;2022-11-15T08:50:11;37.10;;;35.53;;
14698;SDS011;7439;50.804;4.602;2022-11-15T08:52:38;35.03;;;33.40;;
14698;SDS011;7439;50.804;4.602;2022-11-15T08:55:07;55.70;;;52.93;;
14698;SDS011;7439;50.804;4.602;2022-11-15T08:57:35;45.07;;;43.17;;
14698;SDS011;7439;50.804;4.602;2022-11-15T09:00:02;35.87;;;34.17;;
14698;SDS011;7439;50.804;4.602;2022-11-15T09:02:30;41.70;;;40.00;;
14698;SDS011;7439;50.804;4.602;2022-11-15T09:04:57;51.37;;;49.17;;
14698;SDS011;7439;50.804;4.602;2022-11-15T09:07:25;32.73;;;31.10;;
14698;SDS011;7439;50.804;4.602;2022-11-15T09:09:54;51.17;;;48.97;;
14698;SDS011;7439;50.804;4.602;2022-11-15T09:12:23;36.57;;;34.87;;
14698;SDS011;7439;50.804;4.602;2022-11-15T09:14:50;33.97;;;32.23;;
14698;SDS011;7439;50.804;4.602;2022-11-15T09:17:18;31.23;;;29.87;;
14698;SDS011;7439;50.804;4.602;2022-11-15T09:19:45;45.10;;;42.80;;
14698;SDS011;7439;50.804;4.602;2022-11-15T09:22:12;58.10;;;55.07;;
14698;SDS011;7439;50.804;4.602;2022-11-15T09:24:40;47.07;;;43.00;;
14698;SDS011;7439;50.804;4.602;2022-11-15T09:27:07;29.67;;;27.93;;
14698;SDS011;7439;50.804;4.602;2022-11-15T09:29:36;60.20;;;57.20;;
14698;SDS011;7439;50.804;4.602;2022-11-15T09:32:03;36.57;;;34.77;;
14698;SDS011;7439;50.804;4.602;2022-11-15T09:34:31;49.03;;;46.93;;
14698;SDS011;7439;50.804;4.602;2022-11-15T09:36:58;46.83;;;44.77;;
14698;SDS011;7439;50.804;4.602;2022-11-15T09:39:26;68.33;;;65.37;;
14698;SDS011;7439;50.804;4.602;2022-11-15T09:42:06;82.50;;;78.20;;
14698;SDS011;7439;50.804;4.602;2022-11-15T09:44:42;36.47;;;34.47;;
14698;SDS011;7439;50.804;4.602;2022-11-15T09:47:23;69.93;;;66.87;;
14698;SDS011;7439;50.804;4.602;2022-11-15T09:49:52;40.63;;;38.40;;
14698;SDS011;7439;50.804;4.602;2022-11-15T09:52:21;69.77;;;66.70;;
14698;SDS011;7439;50.804;4.602;2022-11-15T09:54:49;57.20;;;54.53;;
14698;SDS011;7439;50.804;4.602;2022-11-15T09:57:18;73.43;;;70.10;;
14698;SDS011;7439;50.804;4.602;2022-11-15T09:59:53;45.67;;;43.23;;
14698;SDS011;7439;50.804;4.602;2022-11-15T10:02:27;34.43;;;32.90;;
14698;SDS011;7439;50.804;4.602;2022-11-15T10:04:59;51.50;;;48.50;;
14698;SDS011;7439;50.804;4.602;2022-11-15T10:07:27;51.60;;;49.33;;
14698;SDS011;7439;50.804;4.602;2022-11-15T10:09:59;42.40;;;40.50;;
14698;SDS011;7439;50.804;4.602;2022-11-15T10:12:30;54.70;;;51.77;;
14698;SDS011;7439;50.804;4.602;2022-11-15T10:15:02;75.47;;;72.17;;
14698;SDS011;7439;50.804;4.602;2022-11-15T10:17:35;109.20;;;104.57;;
14698;SDS011;7439;50.804;4.602;2022-11-15T10:20:08;43.60;;;41.77;;
14698;SDS011;7439;50.804;4.602;2022-11-15T10:22:38;48.40;;;46.20;;
14698;SDS011;7439;50.804;4.602;2022-11-15T10:25:11;33.87;;;32.07;;
14698;SDS011;7439;50.804;4.602;2022-11-15T10:27:39;28.67;;;27.17;;
14698;SDS011;7439;50.804;4.602;2022-11-15T10:30:11;43.23;;;41.40;;
14698;SDS011;7439;50.804;4.602;2022-11-15T10:32:39;39.73;;;37.93;;
14698;SDS011;7439;50.804;4.602;2022-11-15T10:35:18;53.17;;;50.80;;
14698;SDS011;7439;50.804;4.602;2022-11-15T10:37:46;42.30;;;40.33;;
14698;SDS011;7439;50.804;4.602;2022-11-15T10:40:15;61.10;;;58.33;;
14698;SDS011;7439;50.804;4.602;2022-11-15T10:42:43;64.23;;;61.23;;
14698;SDS011;7439;50.804;4.602;2022-11-15T10:45:24;51.67;;;49.33;;
14698;SDS011;7439;50.804;4.602;2022-11-15T10:47:52;37.53;;;35.90;;
14698;SDS011;7439;50.804;4.602;2022-11-15T10:50:26;57.93;;;55.33;;
14698;SDS011;7439;50.804;4.602;2022-11-15T10:52:54;47.30;;;45.17;;
14698;SDS011;7439;50.804;4.602;2022-11-15T10:55:23;48.00;;;45.93;;
14698;SDS011;7439;50.804;4.602;2022-11-15T10:57:52;52.83;;;50.60;;
14698;SDS011;7439;50.804;4.602;2022-11-15T11:00:28;36.13;;;34.57;;
14698;SDS011;7439;50.804;4.602;2022-11-15T11:02:57;92.40;;;87.77;;
14698;SDS011;7439;50.804;4.602;2022-11-15T11:05:26;24.73;;;23.37;;
14698;SDS011;7439;50.804;4.602;2022-11-15T11:07:55;25.93;;;24.33;;
14698;SDS011;7439;50.804;4.602;2022-11-15T11:10:23;39.03;;;37.27;;
14698;SDS011;7439;50.804;4.602;2022-11-15T11:12:50;24.27;;;23.13;;
14698;SDS011;7439;50.804;4.602;2022-11-15T11:15:18;36.63;;;34.93;;
14698;SDS011;7439;50.804;4.602;2022-11-15T11:18:00;28.67;;;27.37;;
14698;SDS011;7439;50.804;4.602;2022-11-15T11:20:33;36.43;;;34.83;;
14698;SDS011;7439;50.804;4.602;2022-11-15T11:23:03;29.17;;;27.77;;
14698;SDS011;7439;50.804;4.602;2022-11-15T11:25:33;20.17;;;18.97;;
14698;SDS011;7439;50.804;4.602;2022-11-15T11:28:14;30.60;;;28.73;;
14698;SDS011;7439;50.804;4.602;2022-11-15T11:30:47;29.23;;;27.87;;
14698;SDS011;7439;50.804;4.602;2022-11-15T11:33:17;21.73;;;20.00;;
14698;SDS011;7439;50.804;4.602;2022-11-15T11:35:56;27.37;;;26.03;;
14698;SDS011;7439;50.804;4.602;2022-11-15T11:38:31;31.70;;;30.20;;
14698;SDS011;7439;50.804;4.602;2022-11-15T11:41:04;19.40;;;18.30;;
14698;SDS011;7439;50.804;4.602;2022-11-15T11:43:36;33.53;;;31.77;;
14698;SDS011;7439;50.804;4.602;2022-11-15T11:48:56;17.33;;;16.43;;
14698;SDS011;7439;50.804;4.602;2022-11-15T11:51:24;18.63;;;17.63;;
14698;SDS011;7439;50.804;4.602;2022-11-15T11:53:54;18.03;;;17.10;;
14698;SDS011;7439;50.804;4.602;2022-11-15T11:56:25;58.13;;;55.67;;
14698;SDS011;7439;50.804;4.602;2022-11-15T11:58:54;39.67;;;37.60;;
14698;SDS011;7439;50.804;4.602;2022-11-15T12:01:24;65.97;;;63.20;;
14698;SDS011;7439;50.804;4.602;2022-11-15T12:03:55;83.00;;;79.57;;
14698;SDS011;7439;50.804;4.602;2022-11-15T12:06:27;74.00;;;70.77;;
14698;SDS011;7439;50.804;4.602;2022-11-15T12:08:58;97.13;;;92.80;;
14698;SDS011;7439;50.804;4.602;2022-11-15T12:11:28;120.03;;;114.67;;
14698;SDS011;7439;50.804;4.602;2022-11-15T12:13:57;87.30;;;83.53;;
14698;SDS011;7439;50.804;4.602;2022-11-15T12:16:26;103.43;;;98.87;;
14698;SDS011;7439;50.804;4.602;2022-11-15T12:18:56;80.30;;;77.00;;
14698;SDS011;7439;50.804;4.602;2022-11-15T12:21:24;88.20;;;84.53;;
14698;SDS011;7439;50.804;4.602;2022-11-15T12:23:55;57.73;;;55.20;;
14698;SDS011;7439;50.804;4.602;2022-11-15T12:26:27;72.30;;;69.23;;
14698;SDS011;7439;50.804;4.602;2022-11-15T12:28:56;78.30;;;74.87;;
14698;SDS011;7439;50.804;4.602;2022-11-15T12:31:27;60.30;;;57.53;;
14698;SDS011;7439;50.804;4.602;2022-11-15T12:33:59;90.83;;;86.73;;
14698;SDS011;7439;50.804;4.602;2022-11-15T12:36:33;38.50;;;36.90;;
14698;SDS011;7439;50.804;4.602;2022-11-15T12:39:02;40.80;;;39.03;;
14698;SDS011;7439;50.804;4.602;2022-11-15T12:41:30;33.50;;;31.90;;
14698;SDS011;7439;50.804;4.602;2022-11-15T12:43:57;24.40;;;23.17;;
14698;SDS011;7439;50.804;4.602;2022-11-15T12:49:24;25.57;;;24.07;;
14698;SDS011;7439;50.804;4.602;2022-11-15T12:52:05;54.80;;;52.30;;
14698;SDS011;7439;50.804;4.602;2022-11-15T12:57:28;43.83;;;41.87;;
14698;SDS011;7439;50.804;4.602;2022-11-15T12:59:57;29.27;;;27.83;;
14698;SDS011;7439;50.804;4.602;2022-11-15T13:02:27;25.77;;;24.47;;
14698;SDS011;7439;50.804;4.602;2022-11-15T13:05:56;25.23;;;24.13;;
14698;SDS011;7439;50.804;4.602;2022-11-15T13:07:57;20.40;;;19.33;;
14698;SDS011;7439;50.804;4.602;2022-11-15T13:10:31;21.57;;;20.63;;
14698;SDS011;7439;50.804;4.602;2022-11-15T13:13:00;24.67;;;23.63;;
14698;SDS011;7439;50.804;4.602;2022-11-15T13:15:35;25.00;;;23.90;;
14698;SDS011;7439;50.804;4.602;2022-11-15T13:18:26;31.47;;;30.00;;
14698;SDS011;7439;50.804;4.602;2022-11-15T13:20:53;22.83;;;21.87;;
14698;SDS011;7439;50.804;4.602;2022-11-15T13:23:22;23.53;;;22.57;;
14698;SDS011;7439;50.804;4.602;2022-11-15T13:26:08;24.43;;;23.20;;
14698;SDS011;7439;50.804;4.602;2022-11-15T13:28:41;20.10;;;19.30;;
14698;SDS011;7439;50.804;4.602;2022-11-15T13:31:24;34.50;;;33.07;;
14698;SDS011;7439;50.804;4.602;2022-11-15T13:33:52;31.53;;;29.93;;
14698;SDS011;7439;50.804;4.602;2022-11-15T13:36:20;34.73;;;33.23;;
14698;SDS011;7439;50.804;4.602;2022-11-15T13:38:55;36.13;;;34.53;;
14698;SDS011;7439;50.804;4.602;2022-11-15T13:41:23;27.87;;;26.60;;
14698;SDS011;7439;50.804;4.602;2022-11-15T13:43:51;28.23;;;26.97;;
14698;SDS011;7439;50.804;4.602;2022-11-15T13:46:19;23.60;;;22.43;;
14698;SDS011;7439;50.804;4.602;2022-11-15T13:48:50;26.50;;;25.47;;
14698;SDS011;7439;50.804;4.602;2022-11-15T13:51:19;23.27;;;22.27;;
14698;SDS011;7439;50.804;4.602;2022-11-15T13:53:50;25.87;;;24.53;;
14698;SDS011;7439;50.804;4.602;2022-11-15T13:56:20;26.97;;;25.77;;
14698;SDS011;7439;50.804;4.602;2022-11-15T13:58:48;20.47;;;19.57;;
14698;SDS011;7439;50.804;4.602;2022-11-15T14:01:16;22.73;;;21.73;;
14698;SDS011;7439;50.804;4.602;2022-11-15T14:03:47;23.47;;;22.57;;
14698;SDS011;7439;50.804;4.602;2022-11-15T14:06:15;23.80;;;22.77;;
14698;SDS011;7439;50.804;4.602;2022-11-15T14:08:57;20.80;;;19.90;;
14698;SDS011;7439;50.804;4.602;2022-11-15T14:11:26;23.17;;;22.17;;
14698;SDS011;7439;50.804;4.602;2022-11-15T14:14:02;21.30;;;20.20;;
14698;SDS011;7439;50.804;4.602;2022-11-15T14:16:35;22.80;;;21.63;;
14698;SDS011;7439;50.804;4.602;2022-11-15T14:19:03;24.47;;;23.27;;
14698;SDS011;7439;50.804;4.602;2022-11-15T14:21:31;22.90;;;21.70;;
14698;SDS011;7439;50.804;4.602;2022-11-15T14:26:45;38.23;;;36.63;;
14698;SDS011;7439;50.804;4.602;2022-11-15T14:29:21;26.10;;;25.07;;
14698;SDS011;7439;50.804;4.602;2022-11-15T14:31:49;24.37;;;22.87;;
14698;SDS011;7439;50.804;4.602;2022-11-15T14:34:16;22.60;;;21.60;;
14698;SDS011;7439;50.804;4.602;2022-11-15T14:36:43;30.83;;;29.53;;
14698;SDS011;7439;50.804;4.602;2022-11-15T14:39:13;26.63;;;25.47;;
14698;SDS011;7439;50.804;4.602;2022-11-15T14:41:45;20.03;;;19.23;;
14698;SDS011;7439;50.804;4.602;2022-11-15T14:44:12;21.07;;;20.17;;
14698;SDS011;7439;50.804;4.602;2022-11-15T14:46:43;24.33;;;22.50;;
14698;SDS011;7439;50.804;4.602;2022-11-15T14:49:10;27.10;;;25.90;;
14698;SDS011;7439;50.804;4.602;2022-11-15T14:51:41;33.80;;;32.50;;